Time;durP1;ratioP1;P1;durP2;ratioP2;P2;SDS_P1;SDS_P2;PMS_P1;PMS_P2;Temp;Humidity;BMP_temperature;BMP_pressure;BME280_temperature;BME280_humidity;BME280_pressure;Samples;Min_cycle;Max_cycle;Signal;HPM_P1;HPM_P2
2024/01/11 00:00:35;;;;;;;26.57;12.07;;;;;;;-145.18;43.41;46689.69;4990956;28;20026;-62
2024/01/11 00:03:01;;;;;;;28.47;11.50;;;;;;;-145.18;46.09;46691.66;4991893;28;20026;-62
2024/01/11 00:05:26;;;;;;;31.90;12.03;;;;;;;-145.18;45.70;46693.59;4991459;28;20303;-62
2024/01/11 00:07:52;;;;;;;27.10;11.27;;;;;;;-145.18;47.49;46689.69;4992142;28;20038;-62
2024/01/11 00:10:18;;;;;;;26.90;11.23;;;;;;;-145.18;51.38;46697.50;4990980;28;20026;-62
2024/01/11 00:12:43;;;;;;;25.50;10.97;;;;;;;-145.18;51.92;46695.56;4991611;28;20545;-62
2024/01/11 00:15:09;;;;;;;28.77;12.27;;;;;;;-145.18;53.36;46689.69;4992424;28;20030;-63
2024/01/11 00:17:34;;;;;;;26.30;11.37;;;;;;;-145.18;55.10;46693.59;4991990;28;20037;-62
2024/01/11 00:20:00;;;;;;;28.50;11.30;;;;;;;-145.18;57.01;46693.59;4992296;28;20049;-62
2024/01/11 00:22:26;;;;;;;32.08;11.30;;;;;;;-145.18;60.06;46697.50;4991884;28;20053;-62
2024/01/11 00:24:51;;;;;;;25.83;11.13;;;;;;;-145.18;60.44;46695.56;4991945;28;20483;-63
2024/01/11 00:27:17;;;;;;;30.37;12.43;;;;;;;-145.18;60.36;46697.50;4994336;28;20058;-62
2024/01/11 00:29:42;;;;;;;24.73;10.43;;;;;;;-145.18;62.84;46695.56;4992264;28;20467;-62
2024/01/11 00:32:07;;;;;;;26.50;11.00;;;;;;;-145.18;63.59;46699.47;4991622;28;20026;-62
2024/01/11 00:34:33;;;;;;;28.43;11.33;;;;;;;-145.18;67.01;46699.47;4973980;28;20466;-62
2024/01/11 00:36:58;;;;;;;26.63;12.20;;;;;;;-145.18;67.37;46697.50;4991497;28;20034;-62
2024/01/11 00:39:24;;;;;;;27.97;11.73;;;;;;;-145.18;71.49;46699.47;4990316;28;20022;-62
2024/01/11 00:41:50;;;;;;;28.07;11.70;;;;;;;-145.18;76.38;46699.47;4991422;28;20023;-62
2024/01/11 00:44:16;;;;;;;31.60;11.45;;;;;;;-145.18;76.04;46701.41;4990734;28;20035;-62
2024/01/11 00:46:41;;;;;;;24.60;10.80;;;;;;;-145.18;78.67;46701.41;4991399;28;20096;-62
2024/01/11 00:49:07;;;;;;;23.00;10.70;;;;;;;-145.18;79.88;46699.47;4988805;28;20030;-62
2024/01/11 00:51:32;;;;;;;23.23;10.87;;;;;;;-145.18;80.61;46697.50;4994658;28;20022;-61
2024/01/11 00:53:58;;;;;;;24.23;10.77;;;;;;;-145.18;81.40;46697.50;4995426;28;20030;-62
2024/01/11 00:56:23;;;;;;;36.03;11.67;;;;;;;-145.18;82.22;46699.47;4994949;28;20033;-62
2024/01/11 00:58:48;;;;;;;27.63;11.90;;;;;;;-145.18;82.52;46699.47;4994851;28;20165;-62
2024/01/11 01:01:14;;;;;;;30.47;12.63;;;;;;;-145.18;86.46;46703.38;4994692;28;20030;-62
2024/01/11 01:03:40;;;;;;;29.40;11.53;;;;;;;-145.18;83.06;46701.41;4993864;28;20109;-62
2024/01/11 01:06:05;;;;;;;33.37;11.20;;;;;;;-145.18;85.42;46697.50;4994517;28;20471;-62
2024/01/11 01:08:31;;;;;;;30.40;11.57;;;;;;;-145.18;86.65;46697.50;4994616;28;20411;-62
2024/01/11 01:10:57;;;;;;;32.93;12.30;;;;;;;-145.18;89.25;46703.38;4994365;28;20037;-62
2024/01/11 01:13:22;;;;;;;33.53;11.67;;;;;;;-145.18;91.48;46699.47;4994750;28;20506;-62
2024/01/11 01:15:48;;;;;;;24.43;10.90;;;;;;;-145.18;92.10;46699.47;4995141;28;20032;-62
2024/01/11 01:18:13;;;;;;;24.07;10.67;;;;;;;-145.18;91.59;46703.38;4993062;28;20030;-63
2024/01/11 01:20:39;;;;;;;26.90;11.30;;;;;;;-145.18;92.93;46703.38;4995119;28;20034;-62
2024/01/11 01:23:04;;;;;;;26.87;11.20;;;;;;;-145.18;93.82;46707.28;4995105;28;20026;-62
2024/01/11 01:25:30;;;;;;;26.07;10.93;;;;;;;-145.18;89.98;46703.38;4994749;28;20033;-67
2024/01/11 01:27:55;;;;;;;27.13;10.90;;;;;;;-145.18;92.93;46699.47;4994986;28;20112;-67
2024/01/11 01:30:22;;;;;;;25.70;11.00;;;;;;;-145.18;92.60;46707.28;4994970;28;20363;-67
2024/01/11 01:32:47;;;;;;;26.10;10.85;;;;;;;-145.18;95.32;46703.38;4993380;28;20065;-67
2024/01/11 01:35:12;;;;;;;30.40;11.93;;;;;;;-145.18;99.83;46705.31;4994250;28;20042;-67
2024/01/11 01:37:38;;;;;;;26.77;11.90;;;;;;;-145.18;100.00;46705.31;4993754;28;20030;-67
2024/01/11 01:40:04;;;;;;;27.03;10.90;;;;;;;-145.18;100.00;46705.31;4994739;28;20038;-67
2024/01/11 01:42:29;;;;;;;27.40;10.97;;;;;;;-145.18;100.00;46705.31;4994210;28;20029;-67
2024/01/11 01:44:55;;;;;;;26.60;11.27;;;;;;;-145.18;100.00;46705.31;4994778;28;20349;-67
2024/01/11 01:47:22;;;;;;;30.23;11.30;;;;;;;-145.18;100.00;46707.28;4993555;28;20398;-67
2024/01/11 01:49:48;;;;;;;30.70;11.68;;;;;;;-145.18;100.00;46707.28;4994310;28;20027;-67
2024/01/11 01:52:16;;;;;;;25.52;10.73;;;;;;;-145.18;100.00;46707.28;4994206;28;20030;-67
2024/01/11 01:54:41;;;;;;;26.58;11.88;;;;;;;-145.18;100.00;46709.22;4994027;28;20045;-67
2024/01/11 01:57:09;;;;;;;25.50;10.10;;;;;;;-145.18;100.00;46711.19;4976251;28;20055;-67
2024/01/11 01:59:35;;;;;;;26.38;10.70;;;;;;;-145.18;100.00;46709.22;4994001;28;20482;-67
2024/01/11 02:02:00;;;;;;;31.60;11.40;;;;;;;-145.18;100.00;46707.28;4991887;28;20049;-67
2024/01/11 02:04:26;;;;;;;29.90;11.97;;;;;;;-145.18;100.00;46711.19;4976430;28;20038;-67
2024/01/11 02:06:55;;;;;;;25.55;11.32;;;;;;;-145.18;100.00;46707.28;4993937;28;20026;-67
2024/01/11 02:09:20;;;;;;;26.80;10.85;;;;;;;-145.18;100.00;46709.22;4993852;28;20025;-67
2024/01/11 02:11:46;;;;;;;23.67;9.50;;;;;;;-145.18;100.00;46707.28;4993457;28;20026;-67
2024/01/11 02:14:12;;;;;;;27.67;11.00;;;;;;;-145.18;100.00;46713.13;4993333;28;20042;-67
2024/01/11 02:16:37;;;;;;;31.27;11.57;;;;;;;-145.18;100.00;46715.09;4991050;28;20041;-67
2024/01/11 02:19:06;;;;;;;24.03;10.87;;;;;;;-145.18;100.00;46715.09;4993552;28;20161;-67
2024/01/11 02:21:33;;;;;;;21.63;10.13;;;;;;;-145.18;100.00;46713.13;4993728;28;20029;-67
2024/01/11 02:24:06;;;;;;;27.52;10.32;;;;;;;-145.18;100.00;46715.09;4988780;28;20037;-67
2024/01/11 02:26:32;;;;;;;28.42;11.82;;;;;;;-145.18;100.00;46717.03;4990838;28;20054;-67
2024/01/11 02:28:57;;;;;;;30.13;12.17;;;;;;;-145.18;100.00;46713.13;4993058;28;20108;-67
2024/01/11 02:31:24;;;;;;;26.63;11.00;;;;;;;-145.18;100.00;46711.19;4993512;28;20050;-67
2024/01/11 02:33:50;;;;;;;26.05;10.20;;;;;;;-145.18;100.00;46711.19;4993069;28;20121;-67
2024/01/11 02:36:16;;;;;;;27.25;10.65;;;;;;;-145.18;100.00;46715.09;4993123;28;20026;-62
2024/01/11 02:38:42;;;;;;;26.95;11.68;;;;;;;-145.18;100.00;46715.09;4992802;28;20395;-62
2024/01/11 02:41:08;;;;;;;25.52;10.57;;;;;;;-145.18;100.00;46715.09;4994662;28;20030;-62
2024/01/11 02:43:36;;;;;;;26.97;11.30;;;;;;;-145.18;100.00;46719.00;4995483;28;20014;-62
2024/01/11 02:46:02;;;;;;;26.42;10.07;;;;;;;-145.18;100.00;46717.03;4993471;28;20178;-62
2024/01/11 02:48:30;;;;;;;23.65;9.40;;;;;;;-145.18;100.00;46713.13;4993444;28;20072;-62
2024/01/11 02:50:57;;;;;;;22.00;9.75;;;;;;;-145.18;100.00;46717.03;4993007;28;20483;-62
2024/01/11 02:53:23;;;;;;;23.13;9.88;;;;;;;-145.18;100.00;46719.00;4993717;28;20034;-62
2024/01/11 02:55:49;;;;;;;24.77;10.13;;;;;;;-145.18;100.00;46715.09;4993712;28;20117;-62
2024/01/11 02:58:15;;;;;;;26.33;10.10;;;;;;;-145.18;100.00;46722.91;4992354;28;20097;-62
2024/01/11 03:00:40;;;;;;;23.93;10.63;;;;;;;-145.18;100.00;46719.00;4975241;28;20030;-62
2024/01/11 03:03:05;;;;;;;26.07;10.67;;;;;;;-145.18;100.00;46717.03;4991823;28;20034;-63
2024/01/11 03:05:31;;;;;;;23.87;10.20;;;;;;;-145.18;100.00;46724.84;4991631;28;20034;-63
2024/01/11 03:07:56;;;;;;;27.10;10.27;;;;;;;-145.18;100.00;46724.84;4992843;28;20041;-62
2024/01/11 03:10:21;;;;;;;25.93;11.17;;;;;;;-145.18;100.00;46722.91;4988178;28;20109;-62
2024/01/11 03:12:49;;;;;;;25.07;9.73;;;;;;;-145.18;100.00;46722.91;4992415;28;20044;-62
2024/01/11 03:15:14;;;;;;;29.27;10.30;;;;;;;-145.18;100.00;46722.91;4992825;28;20034;-62
2024/01/11 03:17:40;;;;;;;19.77;9.50;;;;;;;-145.18;100.00;46724.84;4992869;28;20037;-62
2024/01/11 03:20:06;;;;;;;26.23;10.90;;;;;;;-145.18;100.00;46730.72;4992670;28;20037;-62
2024/01/11 03:22:31;;;;;;;27.55;11.23;;;;;;;-145.18;100.00;46726.81;4992410;28;20069;-62
2024/01/11 03:24:57;;;;;;;24.53;10.20;;;;;;;-145.18;100.00;46726.81;4992781;28;20113;-62
2024/01/11 03:27:22;;;;;;;22.93;9.17;;;;;;;-145.18;100.00;46722.91;4975042;28;20479;-62
2024/01/11 03:29:49;;;;;;;24.30;9.67;;;;;;;-145.18;100.00;46730.72;4991546;28;20040;-62
2024/01/11 03:32:14;;;;;;;31.50;10.13;;;;;;;-145.18;100.00;46734.63;4991894;28;20141;-62
2024/01/11 03:34:40;;;;;;;25.00;10.13;;;;;;;-145.18;100.00;46730.72;4991331;28;20502;-62
2024/01/11 03:37:05;;;;;;;22.23;9.27;;;;;;;-145.18;100.00;46734.63;4992165;28;20069;-62
2024/01/11 03:39:31;;;;;;;21.40;9.00;;;;;;;-145.18;100.00;46732.66;4992500;28;20077;-62
2024/01/11 03:41:56;;;;;;;25.60;9.93;;;;;;;-145.18;100.00;46732.66;4992995;28;20402;-62
2024/01/11 03:44:22;;;;;;;21.53;9.77;;;;;;;-145.18;100.00;46732.66;4992195;28;20100;-62
2024/01/11 03:46:48;;;;;;;24.58;10.45;;;;;;;-145.18;100.00;46730.72;4992592;28;20033;-62
2024/01/11 03:49:13;;;;;;;31.50;10.30;;;;;;;-145.18;100.00;46730.72;4991741;28;20036;-62
2024/01/11 03:51:38;;;;;;;20.37;9.40;;;;;;;-145.18;100.00;46734.63;4992002;28;20033;-62
2024/01/11 03:54:04;;;;;;;25.10;10.70;;;;;;;-145.18;100.00;46726.81;4992232;28;20042;-62
2024/01/11 03:56:30;;;;;;;27.20;10.70;;;;;;;-145.18;100.00;46734.63;4992184;28;20049;-62
2024/01/11 03:58:55;;;;;;;23.67;10.10;;;;;;;-145.18;100.00;46736.56;4974772;28;20196;-62
2024/01/11 04:01:20;;;;;;;20.50;9.80;;;;;;;-145.18;100.00;46734.63;4992690;28;20395;-62
2024/01/11 04:03:46;;;;;;;27.27;10.30;;;;;;;-145.18;100.00;46738.53;4991976;28;20129;-62
2024/01/11 04:06:24;;;;;;;26.10;10.53;;;;;;;-145.18;100.00;46738.53;4992265;28;20082;-62
2024/01/11 04:08:50;;;;;;;25.83;10.73;;;;;;;-145.18;100.00;46744.38;4974744;28;20030;-62
2024/01/11 04:11:16;;;;;;;23.95;9.88;;;;;;;-145.18;100.00;46740.47;4992217;28;20152;-62
2024/01/11 04:13:41;;;;;;;22.85;9.98;;;;;;;-145.18;100.00;46738.53;4992300;28;20041;-62
2024/01/11 04:16:07;;;;;;;25.63;10.60;;;;;;;-145.18;100.00;46748.28;4992166;28;20026;-62
2024/01/11 04:18:32;;;;;;;26.27;10.87;;;;;;;-145.18;100.00;46750.25;4992120;28;20394;-62
2024/01/11 04:20:58;;;;;;;26.03;10.07;;;;;;;-145.18;100.00;46744.38;4992347;28;20467;-62
2024/01/11 04:23:24;;;;;;;27.93;10.83;;;;;;;-145.18;100.00;46742.44;4992063;28;20109;-62
2024/01/11 04:25:51;;;;;;;27.60;11.82;;;;;;;-145.18;100.00;46744.38;4994728;28;20030;-62
2024/01/11 04:28:16;;;;;;;28.05;10.93;;;;;;;-145.18;100.00;46742.44;4995442;28;20042;-62
2024/01/11 04:30:42;;;;;;;26.20;10.10;;;;;;;-145.18;100.00;46746.34;4996272;28;20025;-62
2024/01/11 04:33:08;;;;;;;23.17;9.73;;;;;;;-145.18;100.00;46742.44;4995234;28;20503;-61
2024/01/11 04:35:33;;;;;;;27.67;10.27;;;;;;;-145.18;100.00;46744.38;4996143;28;20034;-62
2024/01/11 04:37:58;;;;;;;29.90;10.90;;;;;;;-145.18;100.00;46744.38;4995711;28;20089;-62
2024/01/11 04:40:24;;;;;;;20.43;9.47;;;;;;;-145.18;100.00;46746.34;4994327;28;20034;-62
2024/01/11 04:42:49;;;;;;;23.37;11.13;;;;;;;-145.18;100.00;46748.28;4995538;28;20530;-62
2024/01/11 04:45:15;;;;;;;25.97;10.93;;;;;;;-145.18;100.00;46744.38;4995581;28;20038;-62
2024/01/11 04:47:40;;;;;;;26.80;11.17;;;;;;;-145.18;100.00;46744.38;4992825;28;20026;-62
2024/01/11 04:50:06;;;;;;;26.43;11.53;;;;;;;-145.18;100.00;46742.44;4994942;28;20554;-62
2024/01/11 04:52:32;;;;;;;23.42;10.63;;;;;;;-145.18;100.00;46746.34;4995109;28;20479;-63
2024/01/11 04:54:57;;;;;;;26.80;11.90;;;;;;;-145.18;100.00;46746.34;4995525;28;20038;-62
2024/01/11 04:57:23;;;;;;;27.10;11.07;;;;;;;-145.18;100.00;46746.34;4994420;28;20484;-62
2024/01/11 04:59:48;;;;;;;25.23;11.07;;;;;;;-145.18;100.00;46748.28;5001448;28;20058;-62
2024/01/11 05:02:13;;;;;;;32.63;12.17;;;;;;;-145.18;100.00;46744.38;4994675;28;20042;-62
2024/01/11 05:04:39;;;;;;;22.73;11.10;;;;;;;-145.18;100.00;46742.44;4994916;28;20445;-62
2024/01/11 05:07:04;;;;;;;29.30;12.73;;;;;;;-145.18;100.00;46746.34;4993206;28;20482;-62
2024/01/11 05:09:29;;;;;;;28.60;12.20;;;;;;;-145.18;100.00;46746.34;4994369;28;20035;-62
2024/01/11 05:11:55;;;;;;;30.33;12.30;;;;;;;-145.18;100.00;46748.28;4994892;28;20141;-62
2024/01/11 05:14:20;;;;;;;31.37;12.87;;;;;;;-145.18;100.00;46744.38;4995279;28;20482;-62
2024/01/11 05:16:45;;;;;;;31.17;13.20;;;;;;;-145.18;100.00;46750.25;4982443;28;20039;-62
2024/01/11 05:19:11;;;;;;;33.43;13.03;;;;;;;-145.18;100.00;46750.25;4995143;28;20459;-62
2024/01/11 05:21:36;;;;;;;27.70;12.70;;;;;;;-145.18;100.00;46750.25;4993844;28;20053;-62
2024/01/11 05:24:02;;;;;;;30.70;12.17;;;;;;;-145.18;100.00;46748.28;4995347;28;20040;-62
2024/01/11 05:26:27;;;;;;;33.27;13.30;;;;;;;-145.18;100.00;46750.25;4994816;28;20206;-62
2024/01/11 05:28:53;;;;;;;37.40;15.07;;;;;;;-145.18;100.00;46750.25;4994271;28;20033;-62
2024/01/11 05:31:19;;;;;;;31.70;12.93;;;;;;;-145.18;100.00;46754.16;4976531;28;20070;-63
2024/01/11 05:33:46;;;;;;;29.98;13.35;;;;;;;-145.18;100.00;46752.19;4976396;28;20058;-62
2024/01/11 05:36:11;;;;;;;32.17;14.82;;;;;;;-145.18;100.00;46754.16;4990565;28;20046;-62
2024/01/11 05:38:39;;;;;;;36.23;15.07;;;;;;;-145.18;100.00;46758.06;4993613;28;20041;-62
2024/01/11 05:41:04;;;;;;;30.50;13.05;;;;;;;-145.18;100.00;46756.09;4974058;28;20112;-62
2024/01/11 05:43:29;;;;;;;35.80;14.47;;;;;;;-145.18;100.00;46758.06;4994558;28;20054;-62
2024/01/11 05:45:55;;;;;;;34.07;14.33;;;;;;;-145.18;100.00;46750.25;4993841;28;20447;-62
2024/01/11 05:48:20;;;;;;;36.43;14.20;;;;;;;-145.18;100.00;46758.06;4979858;28;20033;-62
2024/01/11 05:50:46;;;;;;;37.60;14.63;;;;;;;-145.18;100.00;46756.09;4996266;28;20473;-62
2024/01/11 05:53:12;;;;;;;36.10;14.53;;;;;;;-145.18;100.00;46765.88;4994273;28;20045;-62
2024/01/11 05:55:38;;;;;;;38.90;15.02;;;;;;;-145.18;100.00;46760.00;4994253;28;20474;-62
2024/01/11 05:58:03;;;;;;;39.60;14.57;;;;;;;-145.18;100.00;46761.97;4991757;28;20029;-62
2024/01/11 06:00:29;;;;;;;34.63;15.00;;;;;;;-145.18;100.00;46765.88;4991926;28;20085;-62
2024/01/11 06:02:54;;;;;;;35.43;14.30;;;;;;;-145.18;100.00;46761.97;4993039;28;20052;-62
2024/01/11 06:05:20;;;;;;;39.87;15.50;;;;;;;-145.18;100.00;46763.91;4990735;28;20030;-62
2024/01/11 06:07:45;;;;;;;46.50;15.07;;;;;;;-145.18;100.00;46767.84;4992996;28;20037;-62
2024/01/11 06:10:10;;;;;;;34.67;15.00;;;;;;;-145.18;100.00;46765.88;4992452;28;20036;-62
2024/01/11 06:12:36;;;;;;;40.43;15.17;;;;;;;-145.18;100.00;46769.78;4992723;28;20026;-62
2024/01/11 06:15:02;;;;;;;33.87;14.97;;;;;;;-145.18;100.00;46769.78;4992089;28;20454;-62
2024/01/11 06:17:28;;;;;;;42.83;15.33;;;;;;;-145.18;100.00;46769.78;4974782;28;20045;-62
2024/01/11 06:19:55;;;;;;;38.50;16.60;;;;;;;-145.18;100.00;46769.78;4993165;28;20280;-62
2024/01/11 06:22:20;;;;;;;35.78;15.85;;;;;;;-145.18;100.00;46771.75;4994180;28;20022;-62
2024/01/11 06:24:46;;;;;;;38.33;16.53;;;;;;;-145.18;100.00;46771.75;4993166;28;20041;-62
2024/01/11 06:27:11;;;;;;;37.50;16.73;;;;;;;-145.18;100.00;46777.59;4992909;28;20037;-62
2024/01/11 06:29:37;;;;;;;36.97;15.80;;;;;;;-145.18;100.00;46773.69;4993730;28;20042;-62
2024/01/11 06:32:02;;;;;;;39.83;17.03;;;;;;;-145.18;100.00;46779.56;4993458;28;20037;-62
2024/01/11 06:34:28;;;;;;;40.83;17.30;;;;;;;-145.18;100.00;46775.66;4992816;28;20109;-62
2024/01/11 06:36:55;;;;;;;38.90;17.57;;;;;;;-145.18;100.00;46773.69;4993144;28;20035;-62
2024/01/11 06:39:20;;;;;;;37.67;15.95;;;;;;;-145.18;100.00;46777.59;4993433;28;20043;-62
2024/01/11 06:41:46;;;;;;;40.50;16.83;;;;;;;-145.18;100.00;46777.59;4992902;28;20041;-62
2024/01/11 06:44:11;;;;;;;37.00;15.97;;;;;;;-145.18;100.00;46779.56;4972712;28;20384;-62
2024/01/11 06:46:39;;;;;;;39.50;17.23;;;;;;;-145.18;100.00;46779.56;4989117;28;20030;-61
2024/01/11 06:49:04;;;;;;;38.20;17.35;;;;;;;-145.18;100.00;46781.50;4991217;28;20076;-62
2024/01/11 06:51:30;;;;;;;43.67;18.50;;;;;;;-145.18;100.00;46777.59;4991579;28;20498;-62
2024/01/11 06:53:55;;;;;;;36.20;15.97;;;;;;;-145.18;100.00;46785.41;4990783;28;20027;-62
2024/01/11 06:56:21;;;;;;;43.13;17.80;;;;;;;-145.18;100.00;46781.50;4992046;28;20057;-62
2024/01/11 06:58:46;;;;;;;47.50;18.27;;;;;;;-145.18;100.00;46787.38;4991516;28;20038;-63
2024/01/11 07:01:12;;;;;;;44.03;18.13;;;;;;;-145.18;100.00;46789.31;4991634;28;20034;-62
2024/01/11 07:03:38;;;;;;;45.00;19.20;;;;;;;-145.18;100.00;46791.28;4992188;28;20084;-61
2024/01/11 07:06:03;;;;;;;47.23;18.47;;;;;;;-145.18;100.00;46791.28;4992842;28;20030;-62
2024/01/11 07:08:30;;;;;;;48.23;18.63;;;;;;;-145.18;100.00;46789.31;4993287;28;20022;-62
2024/01/11 07:10:55;;;;;;;45.00;18.80;;;;;;;-145.18;100.00;46793.22;4992910;28;20616;-62
2024/01/11 07:13:21;;;;;;;42.03;18.43;;;;;;;-145.18;100.00;46793.22;4992807;28;20034;-62
2024/01/11 07:15:47;;;;;;;51.80;18.83;;;;;;;-145.18;100.00;46797.13;4992755;28;20084;-62
2024/01/11 07:18:13;;;;;;;44.80;19.23;;;;;;;-145.18;100.00;46797.13;4993064;28;20058;-61
2024/01/11 07:20:39;;;;;;;48.73;20.03;;;;;;;-145.18;100.00;46799.09;4993110;28;20513;-63
2024/01/11 07:23:04;;;;;;;48.97;20.37;;;;;;;-145.18;100.00;46801.03;4992707;28;20030;-62
2024/01/11 07:25:30;;;;;;;50.47;19.00;;;;;;;-145.18;100.00;46803.00;4992810;28;20105;-62
2024/01/11 07:27:55;;;;;;;47.37;20.23;;;;;;;-145.18;100.00;46801.03;4992772;28;20404;-62
2024/01/11 07:30:21;;;;;;;57.67;21.20;;;;;;;-145.18;100.00;46803.00;4991731;28;20267;-62
2024/01/11 07:32:46;;;;;;;53.80;21.50;;;;;;;-145.18;100.00;46801.03;4992760;28;20100;-62
2024/01/11 07:35:12;;;;;;;52.30;22.47;;;;;;;-145.18;100.00;46803.00;4992900;28;20081;-62
2024/01/11 07:37:38;;;;;;;58.83;21.75;;;;;;;-145.18;100.00;46803.00;4992702;28;20077;-62
2024/01/11 07:40:10;;;;;;;52.22;20.88;;;;;;;-145.18;100.00;46803.00;4993008;28;20026;-62
2024/01/11 07:42:40;;;;;;;50.72;20.33;;;;;;;-145.18;100.00;46799.09;4992218;28;20395;-62
2024/01/11 07:45:07;;;;;;;52.08;20.40;;;;;;;-145.18;100.00;46804.94;4992799;28;20065;-63
2024/01/11 07:47:33;;;;;;;49.97;20.90;;;;;;;-145.18;100.00;46799.09;4992480;28;20162;-62
2024/01/11 07:49:58;;;;;;;44.78;19.88;;;;;;;-145.18;100.00;46803.00;4992780;28;20418;-62
2024/01/11 07:52:24;;;;;;;57.47;21.87;;;;;;;-145.18;100.00;46804.94;4990950;28;20022;-62
2024/01/11 07:54:49;;;;;;;50.93;21.97;;;;;;;-145.18;100.00;46803.00;4992871;28;20482;-62
2024/01/11 07:57:14;;;;;;;44.63;19.37;;;;;;;-145.18;100.00;46799.09;4991965;28;20022;-62
2024/01/11 07:59:40;;;;;;;55.00;21.43;;;;;;;-145.18;100.00;46801.03;4993238;28;20080;-62
2024/01/11 08:02:06;;;;;;;53.63;20.60;;;;;;;-145.18;100.00;46801.03;4978660;28;20026;-62
2024/01/11 08:04:32;;;;;;;49.88;20.83;;;;;;;-145.18;100.00;46797.13;4996261;28;20057;-62
2024/01/11 08:06:59;;;;;;;60.50;22.37;;;;;;;-145.18;100.00;46797.13;4992762;28;20061;-62
2024/01/11 08:09:25;;;;;;;49.95;21.15;;;;;;;-145.18;100.00;46797.13;4996490;28;20033;-62
2024/01/11 08:11:52;;;;;;;57.20;23.40;;;;;;;-145.18;100.00;46797.13;4996215;28;20065;-62
2024/01/11 08:14:18;;;;;;;56.22;21.25;;;;;;;-145.18;100.00;46793.22;4996393;28;20030;-62
2024/01/11 08:16:43;;;;;;;53.60;21.60;;;;;;;-145.18;100.00;46789.31;4996415;28;20030;-62
2024/01/11 08:19:10;;;;;;;51.70;22.30;;;;;;;-145.18;100.00;46791.28;4994563;28;20391;-62
2024/01/11 08:21:35;;;;;;;57.22;23.02;;;;;;;-145.18;100.00;46783.47;4993410;28;20034;-62
2024/01/11 08:24:02;;;;;;;53.53;22.10;;;;;;;-145.18;100.00;46783.47;4996180;28;20490;-62
2024/01/11 08:26:28;;;;;;;52.53;22.08;;;;;;;-145.18;100.00;46785.41;4995580;28;20030;-62
2024/01/11 08:28:53;;;;;;;50.07;22.20;;;;;;;-145.18;100.00;46781.50;4996223;28;20037;-62
2024/01/11 08:31:19;;;;;;;54.20;22.67;;;;;;;-145.18;100.00;46783.47;4995861;28;20026;-62
2024/01/11 08:33:45;;;;;;;54.27;22.67;;;;;;;-145.18;100.00;46779.56;4994283;28;20058;-62
2024/01/11 08:36:11;;;;;;;55.50;22.33;;;;;;;-145.18;100.00;46781.50;4978598;28;20137;-62
2024/01/11 08:38:36;;;;;;;52.28;23.25;;;;;;;-145.18;100.00;46775.66;4995449;28;20034;-62
2024/01/11 08:41:03;;;;;;;54.60;22.60;;;;;;;-145.18;100.00;46777.59;4982680;28;20030;-62
2024/01/11 08:43:28;;;;;;;60.63;23.13;;;;;;;-145.18;100.00;46777.59;4995273;28;20033;-62
2024/01/11 08:45:54;;;;;;;60.17;24.87;;;;;;;-145.18;100.00;46773.69;4996221;28;20030;-62
2024/01/11 08:48:19;;;;;;;57.77;23.90;;;;;;;-145.18;100.00;46773.69;4977573;28;20027;-62
2024/01/11 08:50:45;;;;;;;52.57;22.83;;;;;;;-145.18;100.00;46771.75;4995656;28;20034;-62
2024/01/11 08:53:11;;;;;;;54.80;23.73;;;;;;;-145.18;100.00;46771.75;4978232;28;20097;-62
2024/01/11 08:55:36;;;;;;;64.57;24.50;;;;;;;-145.18;100.00;46775.66;4995707;28;20038;-62
2024/01/11 08:58:02;;;;;;;54.60;22.33;;;;;;;-145.18;100.00;46765.88;4995278;28;20375;-62
2024/01/11 09:00:27;;;;;;;62.93;27.00;;;;;;;-145.18;100.00;46769.78;4977818;28;20034;-62
2024/01/11 09:02:53;;;;;;;58.53;24.67;;;;;;;-145.18;100.00;46765.88;4978394;28;20109;-62
2024/01/11 09:05:19;;;;;;;60.00;23.73;;;;;;;-145.18;100.00;46763.91;4995772;28;20478;-62
2024/01/11 09:07:44;;;;;;;55.38;24.40;;;;;;;-145.18;100.00;46761.97;4995295;28;20037;-62
2024/01/11 09:10:13;;;;;;;53.97;22.93;;;;;;;-145.18;100.00;46765.88;4977707;28;20030;-62
2024/01/11 09:12:38;;;;;;;53.45;23.63;;;;;;;-145.18;100.00;46761.97;4995421;28;20440;-62
2024/01/11 09:15:04;;;;;;;54.27;22.73;;;;;;;-145.18;100.00;46760.00;4995555;28;20034;-62
2024/01/11 09:17:29;;;;;;;67.20;27.93;;;;;;;-145.18;100.00;46756.09;4995618;28;20121;-62
2024/01/11 09:19:55;;;;;;;52.77;23.97;;;;;;;-145.18;100.00;46756.09;4995019;28;20490;-62
2024/01/11 09:22:20;;;;;;;55.63;23.10;;;;;;;-145.18;100.00;46756.09;4994852;28;20034;-62
2024/01/11 09:24:46;;;;;;;55.27;23.10;;;;;;;-145.18;100.00;46758.06;4993814;28;20034;-62
2024/01/11 09:27:11;;;;;;;55.77;24.10;;;;;;;-145.18;100.00;46758.06;4995082;28;20026;-62
2024/01/11 09:29:41;;;;;;;52.83;24.03;;;;;;;-145.18;100.00;46756.09;4995318;28;20055;-62
2024/01/11 09:32:07;;;;;;;55.13;23.67;;;;;;;-145.18;100.00;46746.34;4994956;28;20031;-62
2024/01/11 09:34:32;;;;;;;54.27;24.03;;;;;;;-145.18;100.00;46750.25;4994543;28;20102;-62
2024/01/11 09:36:58;;;;;;;58.80;26.17;;;;;;;-145.18;100.00;46746.34;4977384;28;20487;-63
2024/01/11 09:39:25;;;;;;;54.55;24.65;;;;;;;-145.18;100.00;46744.38;4991257;28;20032;-63
2024/01/11 09:42:09;;;;;;;55.60;23.95;;;;;;;-145.18;100.00;46742.44;4994454;28;20121;-63
2024/01/11 09:44:37;;;;;;;58.28;24.02;;;;;;;-145.18;100.00;46742.44;4994901;28;20023;-63
2024/01/11 09:47:06;;;;;;;49.95;23.35;;;;;;;-145.18;100.00;46734.63;4994715;28;20038;-64
2024/01/11 09:49:33;;;;;;;54.58;22.90;;;;;;;-145.18;100.00;46734.63;4994859;28;20014;-64
2024/01/11 09:52:01;;;;;;;55.15;22.90;;;;;;;-145.18;100.00;46732.66;4994756;28;20030;-64
2024/01/11 09:54:26;;;;;;;54.35;23.17;;;;;;;-145.18;100.00;46726.81;4994832;28;20034;-65
2024/01/11 09:56:54;;;;;;;55.20;23.23;;;;;;;-145.18;100.00;46730.72;4994507;28;20053;-65
2024/01/11 09:59:22;;;;;;;53.33;22.65;;;;;;;-145.18;100.00;46726.81;4993966;28;20407;-65
2024/01/11 10:01:48;;;;;;;55.75;23.13;;;;;;;-145.18;100.00;46728.75;4993667;28;20631;-65
2024/01/11 10:04:15;;;;;;;50.00;22.13;;;;;;;-145.18;100.00;46728.75;4994602;28;20034;-65
2024/01/11 10:06:41;;;;;;;49.75;21.27;;;;;;;-145.18;100.00;46724.84;4993956;28;20030;-66
2024/01/11 10:09:07;;;;;;;44.80;21.10;;;;;;;-145.18;100.00;46720.94;4994137;28;20026;-67
2024/01/11 10:11:34;;;;;;;54.67;21.10;;;;;;;-145.18;100.00;46717.03;4993733;28;20038;-67
2024/01/11 10:14:01;;;;;;;52.20;21.33;;;;;;;-145.18;100.00;46719.00;4992937;28;20109;-67
2024/01/11 10:16:28;;;;;;;46.92;20.38;;;;;;;-145.18;100.00;46720.94;4994030;28;20080;-66
2024/01/11 10:18:57;;;;;;;48.03;19.90;;;;;;;-145.18;100.00;46717.03;4993141;28;20202;-67
2024/01/11 10:21:24;;;;;;;43.47;17.60;;;;;;;-145.18;100.00;46722.91;4994104;28;20054;-67
2024/01/11 10:23:50;;;;;;;43.67;19.02;;;;;;;-145.18;100.00;46715.09;4993127;28;20030;-66
2024/01/11 10:26:16;;;;;;;41.88;19.20;;;;;;;-145.18;100.00;46713.13;4993578;28;20041;-67
2024/01/11 10:28:44;;;;;;;45.10;19.58;;;;;;;-145.18;100.00;46715.09;4993805;28;20499;-67
2024/01/11 10:31:10;;;;;;;47.17;20.08;;;;;;;-145.18;100.00;46713.13;4993668;28;20037;-67
2024/01/11 10:33:35;;;;;;;40.80;18.07;;;;;;;-145.18;100.00;46719.00;4993579;28;20042;-67
2024/01/11 10:36:01;;;;;;;37.70;18.43;;;;;;;-145.18;100.00;46709.22;4993815;28;20030;-68
2024/01/11 10:38:30;;;;;;;44.03;19.90;;;;;;;-145.18;100.00;46715.09;4994065;28;20390;-68
2024/01/11 10:41:00;;;;;;;42.85;17.90;;;;;;;-145.18;100.00;46711.19;4993977;28;20050;-68
2024/01/11 10:43:27;;;;;;;35.85;17.42;;;;;;;-145.18;100.00;46711.19;4993870;28;20077;-68
2024/01/11 10:45:58;;;;;;;37.78;18.00;;;;;;;-145.18;100.00;46715.09;4993163;28;20474;-69
2024/01/11 10:48:25;;;;;;;43.55;18.15;;;;;;;-145.18;100.00;46715.09;4993615;28;20034;-69